Time;durP1;ratioP1;P1;durP2;ratioP2;P2;SDS_P1;SDS_P2;PMS_P1;PMS_P2;Temp;Humidity;BMP_temperature;BMP_pressure;BME280_temperature;BME280_humidity;BME280_pressure;Samples;Min_cycle;Max_cycle;Signal;HPM_P1;HPM_P2
2022/08/01 00:01:15;;;;;;;20.77;10.80;;;;;;;;;;4979327;28;20399;-91
2022/08/01 00:03:43;;;;;;;21.42;11.23;;;;;;;;;;5042321;28;20029;-91
2022/08/01 00:06:09;;;;;;;22.27;10.98;;;;;;;;;;4976938;28;20105;-91
2022/08/01 00:08:35;;;;;;;19.13;10.98;;;;;;;;;;4971385;28;20126;-90
2022/08/01 00:11:03;;;;;;;24.60;12.68;;;;;;;;;;4973972;28;20041;-90
2022/08/01 00:13:31;;;;;;;27.20;12.85;;;;;;;;;;5038653;28;20042;-90
2022/08/01 00:15:57;;;;;;;23.63;11.98;;;;;;;;;;4973598;28;20071;-91
2022/08/01 00:18:24;;;;;;;23.42;11.48;;;;;;;;;;4987576;28;20034;-91
2022/08/01 00:20:50;;;;;;;22.27;11.55;;;;;;;;;;4973194;28;20035;-90
2022/08/01 00:23:16;;;;;;;20.33;12.10;;;;;;;;;;5056115;28;20068;-90
2022/08/01 00:25:42;;;;;;;23.40;14.13;;;;;;;;;;5039881;28;20072;-91
2022/08/01 00:28:08;;;;;;;28.40;15.10;;;;;;;;;;5038654;28;20043;-92
2022/08/01 00:30:35;;;;;;;31.92;14.73;;;;;;;;;;4980395;28;20104;-93
2022/08/01 00:33:01;;;;;;;32.17;15.40;;;;;;;;;;4980826;28;20033;-89
2022/08/01 00:35:27;;;;;;;33.58;16.20;;;;;;;;;;4967452;28;20119;-90
2022/08/01 00:37:53;;;;;;;26.30;15.43;;;;;;;;;;4985203;28;20062;-90
2022/08/01 00:40:19;;;;;;;28.58;15.43;;;;;;;;;;4985123;28;20401;-90
2022/08/01 00:42:45;;;;;;;30.98;16.67;;;;;;;;;;4966950;28;20039;-90
2022/08/01 00:45:12;;;;;;;29.20;15.13;;;;;;;;;;4981979;28;20581;-91
2022/08/01 00:47:37;;;;;;;35.58;15.82;;;;;;;;;;4979920;28;20042;-89
2022/08/01 00:50:04;;;;;;;30.00;15.00;;;;;;;;;;4968972;28;20034;-90
2022/08/01 00:52:31;;;;;;;33.67;15.93;;;;;;;;;;5035734;28;20022;-91
2022/08/01 00:54:57;;;;;;;31.98;16.27;;;;;;;;;;5047046;28;20031;-91
2022/08/01 00:57:24;;;;;;;29.13;16.13;;;;;;;;;;4983953;28;20109;-91
2022/08/01 00:59:51;;;;;;;33.35;18.02;;;;;;;;;;5034135;28;20047;-90
2022/08/01 01:02:17;;;;;;;31.70;18.27;;;;;;;;;;5043862;28;20119;-90
2022/08/01 01:04:43;;;;;;;38.95;17.85;;;;;;;;;;5054794;28;20062;-91
2022/08/01 01:07:21;;;;;;;41.78;19.10;;;;;;;;;;4971365;28;20045;-91
2022/08/01 01:09:53;;;;;;;35.75;17.05;;;;;;;;;;4971474;28;20416;-90
2022/08/01 01:12:19;;;;;;;37.13;17.83;;;;;;;;;;5050674;28;20100;-90
2022/08/01 01:15:04;;;;;;;33.58;16.58;;;;;;;;;;4972475;28;20162;-91
2022/08/01 01:17:45;;;;;;;38.30;17.33;;;;;;;;;;4965667;28;20035;-89
2022/08/01 01:20:13;;;;;;;37.70;17.02;;;;;;;;;;4974480;28;20460;-90
2022/08/01 01:22:56;;;;;;;38.80;16.75;;;;;;;;;;4970488;28;20099;-90
2022/08/01 01:25:22;;;;;;;40.42;16.75;;;;;;;;;;4964703;28;20042;-89
2022/08/01 01:27:51;;;;;;;35.50;15.98;;;;;;;;;;4970414;28;20023;-91
2022/08/01 01:30:18;;;;;;;34.40;15.50;;;;;;;;;;4965023;28;20027;-90
2022/08/01 01:32:45;;;;;;;37.78;17.58;;;;;;;;;;4966029;28;20109;-90
2022/08/01 01:35:14;;;;;;;40.88;17.77;;;;;;;;;;5060633;28;20026;-92
2022/08/01 01:37:40;;;;;;;45.20;17.98;;;;;;;;;;4989273;28;20470;-93
2022/08/01 01:40:08;;;;;;;42.83;17.92;;;;;;;;;;4967670;28;20054;-95
2022/08/01 01:42:35;;;;;;;43.65;18.33;;;;;;;;;;4986938;28;20035;-93
2022/08/01 01:45:03;;;;;;;42.70;18.77;;;;;;;;;;5037363;28;20058;-95
2022/08/01 01:47:48;;;;;;;49.15;20.00;;;;;;;;;;4971003;28;20106;-94
2022/08/01 01:50:34;;;;;;;56.28;20.17;;;;;;;;;;4967183;28;20110;-94
2022/08/01 01:53:00;;;;;;;49.83;19.48;;;;;;;;;;4974421;28;20030;-93
2022/08/01 01:55:27;;;;;;;51.72;20.42;;;;;;;;;;4978660;28;20604;-93
2022/08/01 01:57:54;;;;;;;44.97;18.65;;;;;;;;;;5037645;28;20483;-93
2022/08/01 02:00:23;;;;;;;54.22;20.63;;;;;;;;;;4974072;28;20486;-93
2022/08/01 02:02:51;;;;;;;46.03;18.92;;;;;;;;;;4976494;28;20030;-93
2022/08/01 02:05:18;;;;;;;42.95;18.48;;;;;;;;;;5044629;28;20041;-93
2022/08/01 02:07:45;;;;;;;41.80;17.17;;;;;;;;;;4975134;28;20030;-94
2022/08/01 02:10:12;;;;;;;46.53;17.90;;;;;;;;;;4975152;28;20046;-94
2022/08/01 02:12:39;;;;;;;46.47;18.02;;;;;;;;;;5044327;28;20067;-95
2022/08/01 02:15:09;;;;;;;45.17;18.83;;;;;;;;;;4977745;28;20077;-93
2022/08/01 02:17:38;;;;;;;44.15;18.35;;;;;;;;;;5065545;28;20030;-94
2022/08/01 02:20:04;;;;;;;38.85;17.63;;;;;;;;;;4980029;28;20054;-93
2022/08/01 02:22:32;;;;;;;43.35;16.67;;;;;;;;;;5042277;28;20039;-94
2022/08/01 02:25:07;;;;;;;34.05;17.25;;;;;;;;;;5046212;28;20035;-94
2022/08/01 02:27:43;;;;;;;38.60;16.75;;;;;;;;;;4979401;28;20508;-91
2022/08/01 02:30:11;;;;;;;35.92;15.70;;;;;;;;;;4986214;28;20031;-93
2022/08/01 02:32:39;;;;;;;37.22;16.42;;;;;;;;;;4975279;28;20034;-94
2022/08/01 02:35:07;;;;;;;43.50;16.95;;;;;;;;;;4982886;28;20023;-94
2022/08/01 02:37:34;;;;;;;34.25;16.67;;;;;;;;;;4977833;28;20050;-94
2022/08/01 02:40:01;;;;;;;32.88;16.50;;;;;;;;;;5042879;28;20027;-95
2022/08/01 02:42:29;;;;;;;31.45;16.25;;;;;;;;;;5042942;28;20056;-93
2022/08/01 02:48:06;;;;;;;33.22;15.50;;;;;;;;;;4978240;28;20033;-93
2022/08/01 02:50:32;;;;;;;27.20;14.63;;;;;;;;;;4992274;28;20117;-93
2022/08/01 02:52:59;;;;;;;28.73;14.75;;;;;;;;;;4987008;28;20035;-93
2022/08/01 02:55:26;;;;;;;30.40;15.60;;;;;;;;;;5043130;28;20035;-93
2022/08/01 02:57:53;;;;;;;31.95;15.60;;;;;;;;;;4978376;28;20054;-93
2022/08/01 03:00:20;;;;;;;30.45;14.98;;;;;;;;;;4977301;28;20026;-94
2022/08/01 03:02:48;;;;;;;33.20;15.63;;;;;;;;;;4971635;28;20051;-93
2022/08/01 03:05:14;;;;;;;27.98;15.73;;;;;;;;;;4994862;28;20024;-93
2022/08/01 03:07:41;;;;;;;33.75;15.98;;;;;;;;;;4981002;28;20049;-93
2022/08/01 03:10:08;;;;;;;28.20;16.15;;;;;;;;;;5000913;28;20046;-94
2022/08/01 03:12:35;;;;;;;34.72;16.45;;;;;;;;;;4972221;28;20117;-93
2022/08/01 03:15:02;;;;;;;33.38;18.15;;;;;;;;;;5061528;28;20400;-93
2022/08/01 03:17:29;;;;;;;32.55;17.17;;;;;;;;;;4990925;28;20514;-94
2022/08/01 03:19:57;;;;;;;39.88;18.65;;;;;;;;;;4990832;28;20037;-93
2022/08/01 03:22:24;;;;;;;39.95;19.17;;;;;;;;;;5008467;28;20020;-93
2022/08/01 03:24:53;;;;;;;41.35;20.13;;;;;;;;;;4986154;28;20023;-94
2022/08/01 03:27:21;;;;;;;42.83;20.95;;;;;;;;;;4967992;28;20034;-93
2022/08/01 03:29:48;;;;;;;44.00;21.33;;;;;;;;;;4974815;28;20028;-94
2022/08/01 03:32:15;;;;;;;49.53;22.98;;;;;;;;;;4977721;28;20027;-93
2022/08/01 03:34:42;;;;;;;59.92;24.38;;;;;;;;;;4959946;28;20116;-94
2022/08/01 03:37:09;;;;;;;50.47;23.15;;;;;;;;;;5035598;28;20057;-93
2022/08/01 03:39:41;;;;;;;53.47;23.65;;;;;;;;;;5038555;28;20042;-94
2022/08/01 03:42:10;;;;;;;51.92;22.92;;;;;;;;;;4970656;28;20091;-93
2022/08/01 03:44:38;;;;;;;53.88;24.23;;;;;;;;;;4995578;28;20027;-93
2022/08/01 03:47:06;;;;;;;70.70;26.08;;;;;;;;;;4986052;28;20042;-93
2022/08/01 03:49:33;;;;;;;61.53;24.65;;;;;;;;;;5029438;28;20435;-94
2022/08/01 03:52:02;;;;;;;58.05;24.77;;;;;;;;;;4976158;28;20031;-93
2022/08/01 03:54:31;;;;;;;54.90;24.23;;;;;;;;;;4989977;28;20023;-93
2022/08/01 03:56:57;;;;;;;55.33;24.42;;;;;;;;;;4975858;28;20015;-95
2022/08/01 03:59:24;;;;;;;59.38;24.13;;;;;;;;;;4989644;28;20057;-93
2022/08/01 04:01:50;;;;;;;52.47;23.45;;;;;;;;;;4980484;28;20490;-93
2022/08/01 04:04:16;;;;;;;59.70;24.35;;;;;;;;;;5052358;28;20042;-93
2022/08/01 04:06:45;;;;;;;65.63;24.98;;;;;;;;;;5040395;28;20031;-93
2022/08/01 04:09:31;;;;;;;57.38;24.27;;;;;;;;;;5042357;28;20074;-94
2022/08/01 04:11:58;;;;;;;61.17;23.55;;;;;;;;;;4977917;28;20023;-93
2022/08/01 04:14:24;;;;;;;47.85;22.27;;;;;;;;;;4985009;28;20033;-91
2022/08/01 04:16:50;;;;;;;47.65;22.48;;;;;;;;;;4985634;28;20058;-91
2022/08/01 04:19:16;;;;;;;47.35;22.25;;;;;;;;;;5037340;28;20054;-92
2022/08/01 04:21:42;;;;;;;52.58;21.35;;;;;;;;;;5038603;28;20039;-93
2022/08/01 04:24:14;;;;;;;45.15;22.10;;;;;;;;;;4990778;28;20113;-94
2022/08/01 04:26:41;;;;;;;51.55;22.73;;;;;;;;;;5047560;28;20195;-94
2022/08/01 04:29:08;;;;;;;41.85;20.83;;;;;;;;;;4976924;28;20035;-92
2022/08/01 04:31:35;;;;;;;33.45;18.48;;;;;;;;;;5038144;28;20083;-92
2022/08/01 04:34:02;;;;;;;30.45;16.70;;;;;;;;;;5043213;28;20035;-92
2022/08/01 04:36:29;;;;;;;32.05;15.73;;;;;;;;;;4977137;28;20042;-92
2022/08/01 04:38:59;;;;;;;26.98;15.05;;;;;;;;;;4980602;28;20040;-93
2022/08/01 04:41:26;;;;;;;26.08;14.55;;;;;;;;;;4971142;28;20038;-92
2022/08/01 04:43:52;;;;;;;25.38;12.98;;;;;;;;;;4966836;28;20117;-93
2022/08/01 04:46:18;;;;;;;20.90;13.13;;;;;;;;;;5005529;28;20540;-91
2022/08/01 04:48:44;;;;;;;20.75;10.75;;;;;;;;;;4975701;28;20096;-91
2022/08/01 04:51:18;;;;;;;16.13;8.35;;;;;;;;;;5041983;28;20428;-92
2022/08/01 04:53:45;;;;;;;9.90;6.55;;;;;;;;;;4986371;28;20031;-92
2022/08/01 04:56:12;;;;;;;10.32;6.22;;;;;;;;;;4993660;28;20065;-94
2022/08/01 04:58:39;;;;;;;15.20;6.05;;;;;;;;;;4974989;28;20050;-93
2022/08/01 05:01:05;;;;;;;7.50;5.70;;;;;;;;;;4969868;28;20047;-94
2022/08/01 05:03:31;;;;;;;9.60;6.60;;;;;;;;;;4976834;28;20034;-93
2022/08/01 05:05:57;;;;;;;12.02;6.55;;;;;;;;;;4973661;28;20031;-93
2022/08/01 05:08:24;;;;;;;14.70;7.57;;;;;;;;;;4973581;28;20147;-93
2022/08/01 05:10:50;;;;;;;9.55;6.18;;;;;;;;;;4971826;28;20080;-94
2022/08/01 05:13:16;;;;;;;11.77;6.68;;;;;;;;;;4958187;28;20042;-93
2022/08/01 05:15:42;;;;;;;10.60;6.20;;;;;;;;;;4974010;28;20152;-92
2022/08/01 05:18:09;;;;;;;9.55;6.28;;;;;;;;;;4970513;28;20035;-93
2022/08/01 05:20:35;;;;;;;13.45;6.63;;;;;;;;;;4976200;28;20057;-92
2022/08/01 05:23:01;;;;;;;11.43;6.38;;;;;;;;;;4976286;28;20847;-93
2022/08/01 05:25:30;;;;;;;11.15;6.72;;;;;;;;;;4958135;28;20557;-92
2022/08/01 05:27:56;;;;;;;9.70;7.05;;;;;;;;;;4972447;28;20030;-93
2022/08/01 05:30:22;;;;;;;11.07;7.32;;;;;;;;;;5039893;28;20125;-93
2022/08/01 05:32:48;;;;;;;15.35;7.90;;;;;;;;;;4972461;28;20079;-93
2022/08/01 05:35:14;;;;;;;12.68;8.23;;;;;;;;;;4971051;28;20027;-93
2022/08/01 05:37:40;;;;;;;14.85;8.15;;;;;;;;;;4964812;28;20109;-93
2022/08/01 05:43:10;;;;;;;14.60;8.68;;;;;;;;;;4988381;28;20061;-93
2022/08/01 05:45:36;;;;;;;13.57;7.93;;;;;;;;;;4979041;28;20034;-92
2022/08/01 05:48:22;;;;;;;13.65;8.13;;;;;;;;;;4952353;28;20042;-92
2022/08/01 05:50:50;;;;;;;15.57;8.30;;;;;;;;;;4986134;28;20034;-93
2022/08/01 05:53:18;;;;;;;15.25;8.00;;;;;;;;;;4982455;28;20043;-93
2022/08/01 05:55:44;;;;;;;17.67;8.60;;;;;;;;;;4971363;28;20023;-93
2022/08/01 05:58:10;;;;;;;15.10;8.68;;;;;;;;;;4984608;28;20055;-88
2022/08/01 06:00:36;;;;;;;15.80;7.93;;;;;;;;;;4975410;28;20050;-87
2022/08/01 06:03:02;;;;;;;15.57;8.95;;;;;;;;;;5067953;28;20019;-92
2022/08/01 06:05:28;;;;;;;17.65;8.27;;;;;;;;;;4970874;28;20043;-93
2022/08/01 06:07:54;;;;;;;25.80;9.65;;;;;;;;;;4976903;28;20043;-94
2022/08/01 06:10:20;;;;;;;18.73;8.73;;;;;;;;;;4974547;28;20030;-94
2022/08/01 06:12:46;;;;;;;18.08;8.57;;;;;;;;;;4971120;28;20043;-91
2022/08/01 06:15:12;;;;;;;20.65;8.13;;;;;;;;;;4972169;28;20278;-93
2022/08/01 06:17:39;;;;;;;23.08;8.63;;;;;;;;;;4976584;28;20054;-92
2022/08/01 06:20:06;;;;;;;24.00;8.00;;;;;;;;;;4974193;28;20029;-93
2022/08/01 06:22:32;;;;;;;24.50;8.02;;;;;;;;;;4971109;28;20049;-93
2022/08/01 06:24:58;;;;;;;18.45;7.20;;;;;;;;;;5036091;28;20054;-93
2022/08/01 06:27:27;;;;;;;23.30;7.90;;;;;;;;;;5029894;28;20036;-92
2022/08/01 06:29:56;;;;;;;19.00;8.02;;;;;;;;;;5036434;28;20003;-93
2022/08/01 06:32:23;;;;;;;26.30;8.15;;;;;;;;;;5054833;28;20073;-90
2022/08/01 06:34:49;;;;;;;37.80;8.88;;;;;;;;;;5023238;28;20023;-93
2022/08/01 06:37:16;;;;;;;27.92;6.57;;;;;;;;;;5021707;28;20031;-92
2022/08/01 06:39:42;;;;;;;21.50;6.50;;;;;;;;;;4974737;28;20503;-93
2022/08/01 06:42:09;;;;;;;20.98;6.63;;;;;;;;;;4957534;28;20039;-94
2022/08/01 06:44:35;;;;;;;21.23;6.18;;;;;;;;;;4963841;28;20385;-94
2022/08/01 06:47:01;;;;;;;28.48;7.22;;;;;;;;;;5021930;28;20120;-93
2022/08/01 06:49:27;;;;;;;21.38;5.97;;;;;;;;;;4951053;28;20036;-91
2022/08/01 06:52:12;;;;;;;22.85;6.25;;;;;;;;;;5053401;28;20119;-94
2022/08/01 06:54:38;;;;;;;25.05;5.85;;;;;;;;;;4954609;28;20032;-90
2022/08/01 06:57:07;;;;;;;34.08;5.35;;;;;;;;;;5019417;28;20062;-89
2022/08/01 06:59:34;;;;;;;19.20;5.13;;;;;;;;;;5024194;28;20054;-92
2022/08/01 07:02:01;;;;;;;18.75;5.10;;;;;;;;;;4966550;28;20042;-91
2022/08/01 07:04:27;;;;;;;19.65;4.50;;;;;;;;;;5042247;28;20423;-92
2022/08/01 07:06:53;;;;;;;16.23;4.60;;;;;;;;;;4973554;28;20027;-91
2022/08/01 07:09:19;;;;;;;19.40;4.15;;;;;;;;;;4973663;28;20034;-90
2022/08/01 07:11:47;;;;;;;16.55;4.28;;;;;;;;;;5036997;28;20034;-90
2022/08/01 07:14:13;;;;;;;22.75;4.70;;;;;;;;;;5039135;28;20480;-89
2022/08/01 07:16:39;;;;;;;19.13;4.57;;;;;;;;;;4973079;28;20042;-89
2022/08/01 07:19:05;;;;;;;18.15;4.15;;;;;;;;;;4972640;28;20031;-90
2022/08/01 07:21:31;;;;;;;18.90;4.07;;;;;;;;;;4972824;28;20039;-90
2022/08/01 07:23:57;;;;;;;21.48;4.20;;;;;;;;;;4972405;28;20593;-89
2022/08/01 07:26:23;;;;;;;14.68;3.53;;;;;;;;;;5071188;28;20031;-88
2022/08/01 07:28:49;;;;;;;14.57;3.47;;;;;;;;;;4971664;28;20035;-88
2022/08/01 07:31:15;;;;;;;15.05;4.13;;;;;;;;;;4971300;28;20074;-89
2022/08/01 07:33:41;;;;;;;19.77;3.30;;;;;;;;;;4971630;28;20031;-89
2022/08/01 07:36:07;;;;;;;17.00;3.25;;;;;;;;;;5034860;28;20038;-87
2022/08/01 07:38:33;;;;;;;20.00;3.72;;;;;;;;;;4961930;28;20046;-87
2022/08/01 07:40:59;;;;;;;24.20;3.70;;;;;;;;;;4977182;28;20042;-87
2022/08/01 07:43:26;;;;;;;15.25;3.25;;;;;;;;;;4970483;28;20092;-88
2022/08/01 07:45:52;;;;;;;13.25;2.60;;;;;;;;;;5036907;28;20038;-87
2022/08/01 07:48:20;;;;;;;18.88;3.08;;;;;;;;;;4971047;28;20027;-88
2022/08/01 07:50:46;;;;;;;18.77;3.25;;;;;;;;;;4970005;28;20055;-88
2022/08/01 07:53:14;;;;;;;13.88;3.88;;;;;;;;;;4970774;28;20046;-86
2022/08/01 07:55:40;;;;;;;20.65;3.38;;;;;;;;;;4970825;28;20433;-89
2022/08/01 07:58:06;;;;;;;13.65;2.55;;;;;;;;;;4970707;28;20050;-86
2022/08/01 08:00:32;;;;;;;15.77;3.03;;;;;;;;;;4970839;28;20104;-87
2022/08/01 08:02:59;;;;;;;12.35;3.10;;;;;;;;;;4969887;28;20030;-86
2022/08/01 08:05:25;;;;;;;30.17;4.30;;;;;;;;;;4970413;28;20026;-86
2022/08/01 08:07:51;;;;;;;19.75;3.33;;;;;;;;;;4970655;28;20039;-86
2022/08/01 08:10:17;;;;;;;12.65;2.25;;;;;;;;;;4970460;28;20041;-85
2022/08/01 08:12:43;;;;;;;12.10;2.45;;;;;;;;;;4937217;28;20680;-90
2022/08/01 08:15:10;;;;;;;17.20;2.63;;;;;;;;;;4953053;28;20490;-85
2022/08/01 08:17:36;;;;;;;14.23;2.70;;;;;;;;;;4970278;28;20034;-86
2022/08/01 08:20:03;;;;;;;12.75;3.00;;;;;;;;;;4970580;28;20035;-86
2022/08/01 08:22:29;;;;;;;12.35;3.10;;;;;;;;;;4970555;28;20111;-86
2022/08/01 08:24:55;;;;;;;15.50;3.13;;;;;;;;;;4969199;28;20445;-86
2022/08/01 08:27:23;;;;;;;22.27;3.88;;;;;;;;;;4969822;28;20035;-86
2022/08/01 08:29:49;;;;;;;13.45;2.38;;;;;;;;;;4970403;28;20114;-85
2022/08/01 08:32:15;;;;;;;14.23;2.72;;;;;;;;;;4953783;28;20126;-86
2022/08/01 08:34:41;;;;;;;9.05;2.10;;;;;;;;;;4970099;28;20037;-87
2022/08/01 08:37:07;;;;;;;20.42;2.88;;;;;;;;;;4969635;28;20075;-87
2022/08/01 08:39:33;;;;;;;13.60;2.65;;;;;;;;;;4955034;28;20115;-86
2022/08/01 08:42:01;;;;;;;10.48;2.58;;;;;;;;;;4970082;28;20030;-76
2022/08/01 08:44:31;;;;;;;8.43;2.10;;;;;;;;;;4969696;28;20052;-77
2022/08/01 08:46:58;;;;;;;12.88;2.63;;;;;;;;;;4969007;28;20314;-77
2022/08/01 08:49:25;;;;;;;16.95;2.40;;;;;;;;;;4969972;28;20027;-76
2022/08/01 08:51:52;;;;;;;42.65;4.90;;;;;;;;;;4969905;28;20037;-76
2022/08/01 08:54:21;;;;;;;16.20;2.80;;;;;;;;;;4969809;28;20130;-77
2022/08/01 08:56:48;;;;;;;11.32;2.15;;;;;;;;;;4969044;28;20531;-85
2022/08/01 08:59:14;;;;;;;11.65;2.63;;;;;;;;;;4962845;28;20480;-86
2022/08/01 09:01:40;;;;;;;15.90;2.40;;;;;;;;;;4969690;28;20070;-87
2022/08/01 09:04:07;;;;;;;7.95;2.05;;;;;;;;;;4968778;28;20118;-86
2022/08/01 09:06:34;;;;;;;17.88;2.50;;;;;;;;;;4969322;28;20035;-86
2022/08/01 09:09:00;;;;;;;10.60;2.00;;;;;;;;;;4968534;28;20043;-86
2022/08/01 09:11:26;;;;;;;12.88;2.42;;;;;;;;;;4969690;28;20035;-86
2022/08/01 09:14:06;;;;;;;18.50;2.92;;;;;;;;;;4969196;28;20102;-85
2022/08/01 09:16:32;;;;;;;12.60;2.67;;;;;;;;;;4969504;28;20386;-84
2022/08/01 09:19:08;;;;;;;14.02;2.72;;;;;;;;;;4968993;28;20076;-84
2022/08/01 09:21:35;;;;;;;23.88;2.55;;;;;;;;;;4968289;28;20034;-76
2022/08/01 09:24:05;;;;;;;14.63;2.80;;;;;;;;;;4951988;28;20037;-75
2022/08/01 09:26:32;;;;;;;9.32;2.50;;;;;;;;;;4969057;28;20510;-76
2022/08/01 09:28:59;;;;;;;12.75;2.22;;;;;;;;;;4967770;28;20058;-76
2022/08/01 09:31:26;;;;;;;10.25;2.10;;;;;;;;;;4967393;28;20108;-76
2022/08/01 09:33:57;;;;;;;9.07;2.08;;;;;;;;;;4968644;28;20030;-85
2022/08/01 09:36:43;;;;;;;17.13;2.80;;;;;;;;;;4969095;28;20023;-85
2022/08/01 09:39:13;;;;;;;9.00;2.45;;;;;;;;;;4968408;28;20022;-85
2022/08/01 09:41:39;;;;;;;12.65;2.30;;;;;;;;;;4968406;28;20026;-86
2022/08/01 09:44:05;;;;;;;9.15;2.00;;;;;;;;;;4968240;28;20402;-85
2022/08/01 09:46:31;;;;;;;9.93;2.28;;;;;;;;;;4968899;28;20027;-86
2022/08/01 09:49:00;;;;;;;10.65;2.72;;;;;;;;;;4977069;28;20029;-85
2022/08/01 09:51:45;;;;;;;16.80;2.40;;;;;;;;;;4958055;28;20031;-84
2022/08/01 09:54:11;;;;;;;14.68;2.30;;;;;;;;;;4968493;28;20019;-76
2022/08/01 09:56:38;;;;;;;16.92;2.78;;;;;;;;;;4950624;28;20045;-76
2022/08/01 09:59:05;;;;;;;15.10;2.55;;;;;;;;;;4950822;28;20100;-76
2022/08/01 10:01:47;;;;;;;10.10;2.50;;;;;;;;;;4967559;28;20031;-86
2022/08/01 10:04:14;;;;;;;9.00;2.38;;;;;;;;;;4968641;28;20118;-77
2022/08/01 10:06:42;;;;;;;11.05;2.85;;;;;;;;;;4950274;28;20121;-80
2022/08/01 10:09:08;;;;;;;16.05;2.72;;;;;;;;;;4968177;28;20376;-77
2022/08/01 10:11:38;;;;;;;12.60;2.30;;;;;;;;;;4951602;28;20149;-85
2022/08/01 10:14:04;;;;;;;9.38;2.25;;;;;;;;;;4951188;28;20034;-77
2022/08/01 10:16:30;;;;;;;14.88;2.60;;;;;;;;;;4969263;28;20114;-76
2022/08/01 10:18:57;;;;;;;11.90;2.08;;;;;;;;;;4971489;28;20045;-76
2022/08/01 10:21:25;;;;;;;8.38;2.35;;;;;;;;;;4971399;28;20034;-77
2022/08/01 10:23:52;;;;;;;11.73;2.97;;;;;;;;;;4971598;28;20065;-75
2022/08/01 10:26:18;;;;;;;8.65;1.77;;;;;;;;;;4969254;28;20105;-75
2022/08/01 10:28:45;;;;;;;9.80;2.67;;;;;;;;;;4971642;28;20446;-79
2022/08/01 10:31:11;;;;;;;11.80;1.95;;;;;;;;;;4970654;28;20031;-76
2022/08/01 10:33:39;;;;;;;10.13;2.03;;;;;;;;;;4970837;28;20041;-76
2022/08/01 10:36:05;;;;;;;13.82;2.10;;;;;;;;;;4953802;28;20026;-76
2022/08/01 10:38:32;;;;;;;16.58;2.47;;;;;;;;;;4970561;28;20044;-76
2022/08/01 10:40:59;;;;;;;10.32;2.58;;;;;;;;;;4953684;28;20481;-78
2022/08/01 10:43:25;;;;;;;9.30;2.33;;;;;;;;;;4948606;28;20046;-77
2022/08/01 10:45:51;;;;;;;11.15;2.47;;;;;;;;;;4968825;28;20527;-76
2022/08/01 10:48:50;;;;;;;9.57;2.53;;;;;;;;;;4969488;28;20429;-86
2022/08/01 10:51:16;;;;;;;10.32;2.15;;;;;;;;;;4949233;28;20190;-77
2022/08/01 10:53:53;;;;;;;12.13;2.47;;;;;;;;;;4971251;28;20377;-90
2022/08/01 10:56:20;;;;;;;11.93;2.40;;;;;;;;;;4971198;28;20031;-86
2022/08/01 10:58:47;;;;;;;10.43;2.55;;;;;;;;;;4953083;28;20046;-88
2022/08/01 11:01:13;;;;;;;11.43;2.10;;;;;;;;;;4969423;28;20110;-78
2022/08/01 11:03:39;;;;;;;8.43;1.85;;;;;;;;;;4970013;28;20105;-77
2022/08/01 11:06:05;;;;;;;12.20;1.83;;;;;;;;;;4970603;28;20499;-86
2022/08/01 11:08:31;;;;;;;10.02;2.15;;;;;;;;;;4970600;28;20034;-86
2022/08/01 11:11:04;;;;;;;13.23;1.98;;;;;;;;;;4970985;28;20027;-86
2022/08/01 11:13:49;;;;;;;9.18;2.00;;;;;;;;;;4970726;28;20027;-86
2022/08/01 11:16:35;;;;;;;11.18;2.08;;;;;;;;;;4971113;28;20372;-77
2022/08/01 11:19:02;;;;;;;7.93;1.58;;;;;;;;;;4970819;28;20037;-85
2022/08/01 11:21:46;;;;;;;8.02;1.80;;;;;;;;;;4970704;28;20480;-85
2022/08/01 11:24:13;;;;;;;6.80;1.50;;;;;;;;;;4953963;28;20071;-85
2022/08/01 11:26:39;;;;;;;6.57;1.70;;;;;;;;;;4953398;28;20031;-75
2022/08/01 11:29:12;;;;;;;4.78;1.20;;;;;;;;;;4969813;28;20570;-76
2022/08/01 11:31:38;;;;;;;6.00;1.52;;;;;;;;;;4970137;28;20031;-85
2022/08/01 11:34:05;;;;;;;6.85;1.67;;;;;;;;;;4971003;28;20062;-85
2022/08/01 11:36:31;;;;;;;6.00;1.45;;;;;;;;;;4971015;28;20031;-86
2022/08/01 11:39:00;;;;;;;4.45;1.10;;;;;;;;;;4953533;28;20035;-86
2022/08/01 11:41:27;;;;;;;4.22;1.40;;;;;;;;;;4953082;28;20046;-85
2022/08/01 11:44:07;;;;;;;5.75;1.30;;;;;;;;;;4970424;28;20022;-77
2022/08/01 11:46:47;;;;;;;5.32;1.30;;;;;;;;;;4969852;28;20046;-77
2022/08/01 11:49:23;;;;;;;7.67;2.17;;;;;;;;;;4952481;28;20062;-77
2022/08/01 11:51:50;;;;;;;5.25;1.63;;;;;;;;;;4968839;28;20098;-77
2022/08/01 11:54:16;;;;;;;9.60;1.70;;;;;;;;;;4932856;28;20042;-77
2022/08/01 11:56:42;;;;;;;7.70;1.35;;;;;;;;;;4952182;28;20041;-77
2022/08/01 11:59:08;;;;;;;6.82;1.60;;;;;;;;;;4969308;28;20455;-77
2022/08/01 12:01:34;;;;;;;6.57;1.42;;;;;;;;;;4950903;28;20134;-77
2022/08/01 12:04:00;;;;;;;5.65;1.20;;;;;;;;;;4968636;28;20403;-77
2022/08/01 12:06:27;;;;;;;3.03;1.02;;;;;;;;;;4952106;28;20031;-75
2022/08/01 12:08:53;;;;;;;4.68;1.00;;;;;;;;;;4969791;28;20149;-76
2022/08/01 12:11:19;;;;;;;3.78;1.50;;;;;;;;;;4969589;28;20105;-77
2022/08/01 12:13:46;;;;;;;7.97;2.35;;;;;;;;;;4952167;28;20054;-87
2022/08/01 12:16:13;;;;;;;4.03;1.20;;;;;;;;;;4964793;28;20441;-85
2022/08/01 12:18:43;;;;;;;11.60;1.83;;;;;;;;;;4959465;28;20027;-86
2022/08/01 12:21:09;;;;;;;7.03;1.37;;;;;;;;;;4970090;28;20092;-85
2022/08/01 12:23:35;;;;;;;5.05;1.35;;;;;;;;;;4971479;28;20298;-85
2022/08/01 12:26:03;;;;;;;7.22;1.38;;;;;;;;;;4967867;28;20046;-86
2022/08/01 12:28:29;;;;;;;6.68;1.35;;;;;;;;;;4948938;28;20031;-86
2022/08/01 12:30:55;;;;;;;8.45;1.40;;;;;;;;;;4953342;28;20061;-85
2022/08/01 12:33:21;;;;;;;4.25;1.35;;;;;;;;;;4972094;28;20031;-85
2022/08/01 12:35:48;;;;;;;3.17;1.13;;;;;;;;;;4968604;28;20046;-85
2022/08/01 12:38:15;;;;;;;4.82;0.95;;;;;;;;;;4935776;28;20138;-76
2022/08/01 12:40:42;;;;;;;3.38;0.90;;;;;;;;;;4958940;28;20072;-76
2022/08/01 12:43:09;;;;;;;6.68;1.38;;;;;;;;;;4967527;28;20113;-76
2022/08/01 12:45:39;;;;;;;5.95;1.63;;;;;;;;;;4968529;28;20045;-76
2022/08/01 12:48:11;;;;;;;4.60;1.40;;;;;;;;;;4966267;28;20030;-76
2022/08/01 12:50:38;;;;;;;4.85;1.63;;;;;;;;;;4951208;28;20040;-76
2022/08/01 12:53:04;;;;;;;8.13;1.45;;;;;;;;;;4965178;28;20046;-76
2022/08/01 12:55:30;;;;;;;5.32;1.50;;;;;;;;;;4962174;28;20432;-77
2022/08/01 12:58:10;;;;;;;7.20;1.70;;;;;;;;;;4951540;28;20042;-86
2022/08/01 13:00:38;;;;;;;5.53;1.50;;;;;;;;;;4965787;28;20152;-85
2022/08/01 13:03:08;;;;;;;7.45;1.25;;;;;;;;;;4966807;28;20039;-75
2022/08/01 13:05:54;;;;;;;5.63;1.45;;;;;;;;;;5034112;28;20038;-76
2022/08/01 13:08:25;;;;;;;7.57;1.75;;;;;;;;;;4953346;28;20525;-84
2022/08/01 13:11:00;;;;;;;5.03;1.23;;;;;;;;;;4968454;28;20102;-83
2022/08/01 13:13:37;;;;;;;4.97;1.35;;;;;;;;;;4964458;28;20138;-77
2022/08/01 13:16:05;;;;;;;5.28;1.20;;;;;;;;;;4964902;28;20035;-83
2022/08/01 13:18:32;;;;;;;4.97;1.10;;;;;;;;;;4971011;28;20034;-83
2022/08/01 13:21:15;;;;;;;3.05;1.00;;;;;;;;;;4957801;28;20559;-83
2022/08/01 13:23:41;;;;;;;5.65;1.15;;;;;;;;;;4970111;28;20087;-84
2022/08/01 13:26:08;;;;;;;8.45;1.42;;;;;;;;;;4973614;28;20184;-84
2022/08/01 13:28:36;;;;;;;7.50;1.70;;;;;;;;;;4970424;28;20563;-85
2022/08/01 13:31:06;;;;;;;5.93;1.33;;;;;;;;;;4965011;28;20461;-85
2022/08/01 13:33:42;;;;;;;6.57;1.50;;;;;;;;;;4970436;28;20031;-86
2022/08/01 13:36:09;;;;;;;5.57;1.15;;;;;;;;;;4965166;28;20045;-85
2022/08/01 13:41:20;;;;;;;11.30;2.05;;;;;;;;;;4968770;28;20411;-86
2022/08/01 13:43:46;;;;;;;7.07;1.60;;;;;;;;;;4957415;28;20527;-85
2022/08/01 13:46:12;;;;;;;8.27;1.58;;;;;;;;;;4968473;28;20369;-87
2022/08/01 13:48:38;;;;;;;7.57;1.92;;;;;;;;;;4967514;28;20042;-86
2022/08/01 13:51:04;;;;;;;7.65;1.80;;;;;;;;;;4971957;28;20519;-85
2022/08/01 13:53:30;;;;;;;6.22;1.45;;;;;;;;;;5031608;28;20496;-86
2022/08/01 13:55:56;;;;;;;5.95;1.48;;;;;;;;;;4972930;28;20159;-85
2022/08/01 13:58:23;;;;;;;8.40;1.65;;;;;;;;;;4968402;28;20094;-84
2022/08/01 14:00:49;;;;;;;6.82;1.25;;;;;;;;;;4956096;28;20451;-85
2022/08/01 14:03:16;;;;;;;6.78;1.30;;;;;;;;;;4955254;28;20031;-85
2022/08/01 14:05:42;;;;;;;9.38;1.65;;;;;;;;;;4955148;29;20031;-84
2022/08/01 14:08:08;;;;;;;9.70;1.73;;;;;;;;;;4941193;28;20050;-85
2022/08/01 14:10:34;;;;;;;7.55;1.60;;;;;;;;;;4998604;28;20854;-84
2022/08/01 14:13:00;;;;;;;8.45;1.70;;;;;;;;;;4954884;28;20050;-85
2022/08/01 14:15:27;;;;;;;6.50;1.25;;;;;;;;;;4955137;28;20102;-84
2022/08/01 14:17:53;;;;;;;6.72;1.63;;;;;;;;;;4955239;28;20019;-83
2022/08/01 14:20:21;;;;;;;7.05;1.83;;;;;;;;;;4938175;28;20512;-84
2022/08/01 14:22:47;;;;;;;9.98;1.95;;;;;;;;;;4954490;28;20119;-89
2022/08/01 14:25:13;;;;;;;6.55;1.63;;;;;;;;;;4937990;29;20039;-84
2022/08/01 14:27:41;;;;;;;7.07;1.60;;;;;;;;;;4938200;29;20038;-85
2022/08/01 14:30:07;;;;;;;5.45;1.30;;;;;;;;;;4955361;29;20642;-83
2022/08/01 14:32:33;;;;;;;13.65;2.22;;;;;;;;;;4954604;28;20034;-76
2022/08/01 14:35:03;;;;;;;5.90;1.55;;;;;;;;;;4953802;28;20415;-76
2022/08/01 14:37:29;;;;;;;6.50;1.98;;;;;;;;;;4954668;28;20038;-77
2022/08/01 14:39:59;;;;;;;5.65;1.70;;;;;;;;;;4954759;28;20029;-76
2022/08/01 14:42:26;;;;;;;4.20;1.45;;;;;;;;;;4953121;28;20039;-77